Time;durP1;ratioP1;P1;durP2;ratioP2;P2;SDS_P1;SDS_P2;PMS_P1;PMS_P2;Temp;Humidity;BMP_temperature;BMP_pressure;BME280_temperature;BME280_humidity;BME280_pressure;Samples;Min_cycle;Max_cycle;Signal;HPM_P1;HPM_P2
2022/02/20 00:02:27;;;;;;;1.17;0.50;;;18.80;45.20;;;;;;6147538;29;20065;-65
2022/02/20 00:05:28;;;;;;;0.70;0.50;;;18.80;45.20;;;;;;6147317;29;20114;-65
2022/02/20 00:08:28;;;;;;;1.10;0.40;;;18.80;45.20;;;;;;6167203;28;20050;-65
2022/02/20 00:11:29;;;;;;;0.93;0.43;;;18.80;45.20;;;;;;6171318;28;20034;-66
2022/02/20 00:14:29;;;;;;;1.35;0.40;;;18.80;45.40;;;;;;6170306;28;20069;-63
2022/02/20 00:17:30;;;;;;;0.93;0.40;;;18.80;45.30;;;;;;6171083;28;20041;-64
2022/02/20 00:20:31;;;;;;;1.55;0.50;;;18.80;45.40;;;;;;6170899;28;20027;-65
2022/02/20 00:23:32;;;;;;;0.57;0.47;;;18.80;45.40;;;;;;6171287;28;20093;-66
2022/02/20 00:26:32;;;;;;;1.50;0.68;;;18.80;45.40;;;;;;6170625;28;20019;-65
2022/02/20 00:29:33;;;;;;;1.40;0.70;;;18.80;45.50;;;;;;6170851;28;20031;-65
2022/02/20 00:32:33;;;;;;;0.52;0.40;;;18.80;45.40;;;;;;6164712;28;20035;-66
2022/02/20 00:35:34;;;;;;;0.95;0.55;;;18.80;45.50;;;;;;6147211;28;20027;-65
2022/02/20 00:38:34;;;;;;;1.05;0.52;;;18.80;45.50;;;;;;6146038;28;20050;-65
2022/02/20 00:41:35;;;;;;;1.38;0.47;;;18.80;45.50;;;;;;6146582;28;20058;-66
2022/02/20 00:44:35;;;;;;;0.90;0.30;;;18.80;45.60;;;;;;6146263;29;20371;-65
2022/02/20 00:47:36;;;;;;;1.15;0.30;;;18.80;45.60;;;;;;6146335;29;20305;-62
2022/02/20 00:50:36;;;;;;;1.30;0.38;;;18.80;45.50;;;;;;6152845;28;20030;-64
2022/02/20 00:53:37;;;;;;;1.17;0.50;;;18.80;45.50;;;;;;6170034;28;20097;-66
2022/02/20 00:56:38;;;;;;;0.55;0.30;;;18.70;45.40;;;;;;6169898;28;20113;-66
2022/02/20 00:59:38;;;;;;;0.55;0.40;;;18.80;45.50;;;;;;6170555;28;20087;-66
2022/02/20 01:02:39;;;;;;;0.63;0.45;;;18.80;45.60;;;;;;6170064;28;20038;-66
2022/02/20 01:05:42;;;;;;;1.10;0.50;;;18.80;45.60;;;;;;6169878;28;20110;-65
2022/02/20 01:08:42;;;;;;;0.73;0.35;;;18.80;45.60;;;;;;6170124;28;20109;-63
2022/02/20 01:11:43;;;;;;;0.82;0.50;;;18.80;45.60;;;;;;6169919;28;20019;-64
2022/02/20 01:14:45;;;;;;;0.70;0.50;;;18.80;45.70;;;;;;6169600;28;20118;-64
2022/02/20 01:17:45;;;;;;;1.60;0.50;;;18.80;45.60;;;;;;6169792;28;20031;-65
2022/02/20 01:20:46;;;;;;;1.30;0.60;;;18.80;45.60;;;;;;6169969;28;20425;-65
2022/02/20 01:23:46;;;;;;;0.65;0.50;;;18.80;45.60;;;;;;6169692;28;20027;-64
2022/02/20 01:26:47;;;;;;;1.27;0.50;;;18.80;45.60;;;;;;6169910;28;20478;-62
2022/02/20 01:29:47;;;;;;;1.48;0.50;;;18.70;45.70;;;;;;6169807;28;20516;-66
2022/02/20 01:32:48;;;;;;;1.00;0.50;;;18.70;45.60;;;;;;6162386;28;20066;-65
2022/02/20 01:35:49;;;;;;;0.60;0.40;;;18.80;45.60;;;;;;6145753;28;20497;-66
2022/02/20 01:38:49;;;;;;;1.70;0.70;;;18.80;45.80;;;;;;6145884;28;20070;-66
2022/02/20 01:41:51;;;;;;;0.63;0.40;;;18.70;45.80;;;;;;6145771;28;20027;-66
2022/02/20 01:44:52;;;;;;;0.65;0.40;;;18.70;45.80;;;;;;6145463;29;20467;-65
2022/02/20 01:47:53;;;;;;;0.93;0.40;;;18.70;45.70;;;;;;6164620;28;20081;-64
2022/02/20 01:50:53;;;;;;;0.88;0.50;;;18.70;46.50;;;;;;6173183;28;20494;-65
2022/02/20 01:53:54;;;;;;;0.88;0.40;;;18.70;45.70;;;;;;6174115;28;20053;-65
2022/02/20 01:56:56;;;;;;;1.23;0.55;;;18.70;45.80;;;;;;6173925;28;20090;-65
2022/02/20 01:59:59;;;;;;;0.70;0.57;;;18.70;45.70;;;;;;6174704;28;20019;-65
2022/02/20 02:03:00;;;;;;;0.93;0.40;;;18.70;45.80;;;;;;6173947;28;20031;-65
2022/02/20 02:06:00;;;;;;;0.68;0.30;;;18.70;45.80;;;;;;6173995;28;20521;-64
2022/02/20 02:09:01;;;;;;;0.75;0.38;;;18.70;45.80;;;;;;6173924;28;20034;-65
2022/02/20 02:12:02;;;;;;;1.10;0.50;;;18.70;45.80;;;;;;6173998;28;20081;-65
2022/02/20 02:15:11;;;;;;;0.45;0.35;;;18.70;45.80;;;;;;6173444;28;20477;-65
2022/02/20 02:18:11;;;;;;;1.52;0.47;;;18.70;45.80;;;;;;6173550;28;20048;-66
2022/02/20 02:21:12;;;;;;;0.68;0.40;;;18.70;45.80;;;;;;6174301;28;20035;-66
2022/02/20 02:24:15;;;;;;;1.10;0.50;;;18.70;45.90;;;;;;6173229;28;20102;-66
2022/02/20 02:27:16;;;;;;;0.30;0.22;;;18.70;45.90;;;;;;6173511;28;20027;-65
2022/02/20 02:30:16;;;;;;;0.70;0.28;;;18.70;45.80;;;;;;6173436;28;20027;-65
2022/02/20 02:33:31;;;;;;;0.90;0.40;;;18.70;45.90;;;;;;6162160;28;20030;-65
2022/02/20 02:36:32;;;;;;;0.57;0.40;;;18.70;45.90;;;;;;6149823;28;20070;-65
2022/02/20 02:39:33;;;;;;;0.38;0.35;;;18.70;45.90;;;;;;6149382;28;20393;-66
2022/02/20 02:42:33;;;;;;;1.20;0.50;;;18.70;45.90;;;;;;6149621;28;20086;-66
2022/02/20 02:45:34;;;;;;;0.95;0.30;;;18.70;45.90;;;;;;6148853;29;20039;-66
2022/02/20 02:48:43;;;;;;;0.55;0.40;;;18.70;45.90;;;;;;6149435;29;20031;-65
2022/02/20 02:51:44;;;;;;;1.05;0.38;;;18.70;45.90;;;;;;6149254;29;20050;-65
2022/02/20 02:54:44;;;;;;;0.80;0.40;;;18.70;46.00;;;;;;6149020;29;20055;-65
2022/02/20 02:57:45;;;;;;;0.70;0.40;;;18.70;46.00;;;;;;6148715;29;20043;-65
2022/02/20 03:00:45;;;;;;;0.75;0.30;;;18.70;45.90;;;;;;6148205;28;20064;-65
2022/02/20 03:03:46;;;;;;;0.70;0.50;;;18.70;46.00;;;;;;6149049;29;20102;-65
2022/02/20 03:06:46;;;;;;;0.98;0.57;;;18.70;46.00;;;;;;6156654;28;20110;-65
2022/02/20 03:09:47;;;;;;;0.68;0.30;;;18.70;45.90;;;;;;6172549;28;20776;-65
2022/02/20 03:12:47;;;;;;;1.15;0.50;;;18.70;46.00;;;;;;6172537;28;20057;-65
2022/02/20 03:15:48;;;;;;;0.80;0.40;;;18.70;46.00;;;;;;6172515;28;20093;-66
2022/02/20 03:18:48;;;;;;;0.22;0.20;;;18.70;46.00;;;;;;6172460;28;20074;-66
2022/02/20 03:21:49;;;;;;;1.33;0.43;;;18.70;46.10;;;;;;6172408;28;20030;-65
2022/02/20 03:24:49;;;;;;;0.55;0.30;;;18.70;46.00;;;;;;6172489;28;20038;-65
2022/02/20 03:27:50;;;;;;;0.47;0.40;;;18.70;46.00;;;;;;6172184;28;20110;-63
2022/02/20 03:30:51;;;;;;;0.60;0.35;;;18.70;46.10;;;;;;6172224;28;20033;-65
2022/02/20 03:33:52;;;;;;;0.73;0.40;;;18.70;46.00;;;;;;6155791;28;20023;-65
2022/02/20 03:36:52;;;;;;;0.32;0.20;;;18.70;46.80;;;;;;6147810;28;20058;-65
2022/02/20 03:39:53;;;;;;;1.00;0.40;;;18.70;46.10;;;;;;6147981;28;20031;-66
2022/02/20 03:42:53;;;;;;;0.30;0.30;;;18.70;46.00;;;;;;6147743;28;20090;-66
2022/02/20 03:45:54;;;;;;;0.88;0.20;;;18.70;46.10;;;;;;6147802;29;20027;-65
2022/02/20 03:48:55;;;;;;;0.45;0.28;;;18.70;46.80;;;;;;6147768;29;20090;-65
2022/02/20 03:51:55;;;;;;;0.50;0.30;;;18.70;46.20;;;;;;6147500;29;20035;-65
2022/02/20 03:54:56;;;;;;;0.45;0.40;;;18.70;46.20;;;;;;6147308;29;20055;-65
2022/02/20 03:57:57;;;;;;;0.55;0.30;;;18.70;46.20;;;;;;6147532;29;20122;-66
2022/02/20 04:00:58;;;;;;;0.35;0.20;;;18.70;46.20;;;;;;6147746;29;20118;-65
2022/02/20 04:03:59;;;;;;;0.40;0.30;;;18.70;46.10;;;;;;6147439;29;20574;-65
2022/02/20 04:06:59;;;;;;;0.43;0.30;;;18.70;46.20;;;;;;6157029;28;20085;-66
2022/02/20 04:10:00;;;;;;;0.65;0.30;;;18.70;46.20;;;;;;6170888;28;20042;-65
2022/02/20 04:13:00;;;;;;;0.63;0.43;;;18.70;46.10;;;;;;6170882;28;20030;-66
2022/02/20 04:16:01;;;;;;;0.50;0.30;;;18.70;46.20;;;;;;6171013;28;20031;-65
2022/02/20 04:19:01;;;;;;;0.20;0.20;;;18.70;46.20;;;;;;6171183;28;20023;-65
2022/02/20 04:22:02;;;;;;;0.50;0.28;;;18.70;46.20;;;;;;6170536;28;20708;-66
2022/02/20 04:25:03;;;;;;;0.40;0.25;;;18.70;46.20;;;;;;6171169;28;20382;-66
2022/02/20 04:28:04;;;;;;;0.30;0.30;;;18.70;46.20;;;;;;6170888;28;20019;-65
2022/02/20 04:31:04;;;;;;;0.47;0.38;;;18.70;46.20;;;;;;6173101;28;20144;-66
2022/02/20 04:34:05;;;;;;;0.50;0.30;;;18.70;46.20;;;;;;6152848;28;20034;-65
2022/02/20 04:37:05;;;;;;;0.90;0.40;;;18.70;46.20;;;;;;6146464;28;20043;-65
2022/02/20 04:40:06;;;;;;;0.28;0.20;;;18.70;46.20;;;;;;6146910;28;20027;-66
2022/02/20 04:43:07;;;;;;;0.70;0.40;;;18.70;46.30;;;;;;6146038;28;20031;-66
2022/02/20 04:46:07;;;;;;;0.50;0.40;;;18.70;46.20;;;;;;6146413;29;20098;-66
2022/02/20 04:49:08;;;;;;;0.52;0.30;;;18.70;46.90;;;;;;6146376;29;20394;-66
2022/02/20 04:52:09;;;;;;;0.30;0.30;;;18.70;46.20;;;;;;6146343;29;20039;-65
2022/02/20 04:55:09;;;;;;;0.47;0.35;;;18.70;46.20;;;;;;6146474;29;20384;-66
2022/02/20 04:58:10;;;;;;;0.35;0.22;;;18.70;46.20;;;;;;6146563;29;20035;-66
2022/02/20 05:01:10;;;;;;;0.50;0.20;;;18.70;46.20;;;;;;6146233;29;20031;-65
2022/02/20 05:04:11;;;;;;;1.45;0.30;;;18.70;46.20;;;;;;6144835;29;20023;-65
2022/02/20 05:07:11;;;;;;;0.70;0.55;;;18.70;46.20;;;;;;6157411;28;20034;-65
2022/02/20 05:10:12;;;;;;;0.30;0.20;;;18.70;46.20;;;;;;6170287;28;20062;-64
2022/02/20 05:13:12;;;;;;;0.30;0.30;;;18.70;46.20;;;;;;6169605;28;20034;-66
2022/02/20 05:16:13;;;;;;;0.52;0.40;;;18.70;46.20;;;;;;6170159;28;20028;-65
2022/02/20 05:19:13;;;;;;;0.15;0.15;;;18.70;46.20;;;;;;6170086;28;20035;-65
2022/02/20 05:22:14;;;;;;;0.30;0.22;;;18.70;46.20;;;;;;6169860;28;20445;-65
2022/02/20 05:25:16;;;;;;;1.45;0.55;;;18.70;46.20;;;;;;6174312;28;20030;-66
2022/02/20 05:28:17;;;;;;;0.50;0.20;;;18.70;46.20;;;;;;6177939;28;20078;-65
2022/02/20 05:31:18;;;;;;;0.65;0.30;;;18.70;46.30;;;;;;6177763;28;20058;-66
2022/02/20 05:34:18;;;;;;;0.80;0.50;;;18.70;46.30;;;;;;6157994;28;20031;-66
2022/02/20 05:37:19;;;;;;;0.20;0.20;;;18.70;46.20;;;;;;6153855;28;20069;-66
2022/02/20 05:40:22;;;;;;;1.25;0.45;;;18.70;46.30;;;;;;6154094;28;20114;-65
2022/02/20 05:43:22;;;;;;;0.20;0.20;;;18.70;46.30;;;;;;6153346;28;20086;-65
2022/02/20 05:46:23;;;;;;;0.20;0.20;;;18.70;46.30;;;;;;6153765;28;20031;-66
2022/02/20 05:49:24;;;;;;;0.20;0.20;;;18.70;46.30;;;;;;6153612;28;20069;-65
2022/02/20 05:52:24;;;;;;;0.47;0.20;;;18.70;46.30;;;;;;6153799;29;20050;-66
2022/02/20 05:55:25;;;;;;;0.20;0.20;;;18.70;46.30;;;;;;6174663;28;20418;-65
2022/02/20 05:58:26;;;;;;;0.40;0.20;;;18.70;46.30;;;;;;6177496;28;20134;-66
2022/02/20 06:01:27;;;;;;;0.65;0.25;;;18.70;46.30;;;;;;6171733;28;20401;-66
2022/02/20 06:04:27;;;;;;;0.20;0.20;;;18.70;46.30;;;;;;6153271;28;20019;-66
2022/02/20 06:07:28;;;;;;;0.30;0.22;;;18.70;46.30;;;;;;6166829;28;20529;-66
2022/02/20 06:10:28;;;;;;;0.20;0.20;;;18.70;46.30;;;;;;6177051;28;20042;-66
2022/02/20 06:13:29;;;;;;;0.63;0.30;;;18.70;46.30;;;;;;6177323;28;20031;-65
2022/02/20 06:16:29;;;;;;;0.20;0.20;;;18.70;46.30;;;;;;6177366;28;20054;-65
2022/02/20 06:19:30;;;;;;;0.25;0.25;;;18.70;46.30;;;;;;6177423;28;20059;-66
2022/02/20 06:22:30;;;;;;;0.55;0.10;;;18.70;46.30;;;;;;6177558;28;20030;-65
2022/02/20 06:25:31;;;;;;;0.55;0.30;;;18.70;46.30;;;;;;6177151;28;20094;-65
2022/02/20 06:28:32;;;;;;;1.15;0.40;;;18.70;46.30;;;;;;6177291;28;20497;-65
2022/02/20 06:31:32;;;;;;;0.20;0.20;;;18.70;46.30;;;;;;6177169;28;20919;-65
2022/02/20 06:34:33;;;;;;;0.50;0.28;;;18.70;46.30;;;;;;6155229;28;20075;-66
2022/02/20 06:37:33;;;;;;;0.20;0.10;;;18.70;46.30;;;;;;6149773;28;20390;-65
2022/02/20 06:40:35;;;;;;;0.45;0.25;;;18.70;46.30;;;;;;6149515;28;20102;-64
2022/02/20 06:43:36;;;;;;;0.30;0.20;;;18.70;46.30;;;;;;6149373;28;20031;-65
2022/02/20 06:46:37;;;;;;;0.25;0.20;;;18.70;46.30;;;;;;6149179;29;20443;-64
2022/02/20 06:49:37;;;;;;;0.35;0.20;;;18.70;46.20;;;;;;6149424;29;20020;-66
2022/02/20 06:52:38;;;;;;;0.52;0.25;;;18.70;46.30;;;;;;6148911;29;20363;-65
2022/02/20 06:55:38;;;;;;;0.30;0.20;;;18.70;46.30;;;;;;6148849;29;20142;-64
2022/02/20 06:58:39;;;;;;;0.13;0.10;;;18.70;46.30;;;;;;6148695;29;20040;-64
2022/02/20 07:01:40;;;;;;;0.28;0.28;;;18.70;46.30;;;;;;6149364;29;20094;-64
2022/02/20 07:04:40;;;;;;;0.20;0.20;;;18.70;46.30;;;;;;6148726;29;20035;-65
2022/02/20 07:07:41;;;;;;;0.75;0.20;;;18.70;46.30;;;;;;6163627;28;20486;-65
2022/02/20 07:10:41;;;;;;;0.20;0.20;;;18.70;46.30;;;;;;6172969;28;20026;-65
2022/02/20 07:13:42;;;;;;;0.52;0.30;;;18.70;46.30;;;;;;6172412;28;20035;-65
2022/02/20 07:16:42;;;;;;;0.17;0.17;;;18.70;46.30;;;;;;6172186;28;20066;-66
2022/02/20 07:19:43;;;;;;;0.20;0.20;;;18.70;46.30;;;;;;6172667;28;20466;-66
2022/02/20 07:22:44;;;;;;;0.47;0.30;;;18.70;46.30;;;;;;6172506;28;20085;-65
2022/02/20 07:25:44;;;;;;;0.40;0.22;;;18.70;46.30;;;;;;6172254;28;20019;-66
2022/02/20 07:28:45;;;;;;;0.68;0.30;;;18.70;46.30;;;;;;6172037;28;20062;-66
2022/02/20 07:31:46;;;;;;;0.20;0.20;;;18.70;46.30;;;;;;6172268;28;20026;-65
2022/02/20 07:34:46;;;;;;;0.25;0.20;;;18.70;46.30;;;;;;6148478;28;20101;-66
2022/02/20 07:37:47;;;;;;;0.47;0.20;;;18.70;46.30;;;;;;6148155;28;20027;-65
2022/02/20 07:40:47;;;;;;;0.20;0.20;;;18.70;46.30;;;;;;6147706;28;20027;-65
2022/02/20 07:43:49;;;;;;;0.35;0.28;;;18.70;46.30;;;;;;6142083;28;20051;-66
2022/02/20 07:46:50;;;;;;;0.20;0.20;;;18.70;46.30;;;;;;6166023;28;20023;-65
2022/02/20 07:49:51;;;;;;;0.28;0.20;;;18.70;46.30;;;;;;6169580;28;20027;-65
2022/02/20 07:52:51;;;;;;;2.17;0.20;;;18.70;46.40;;;;;;6169078;28;20105;-67
2022/02/20 07:55:52;;;;;;;5.07;0.20;;;18.70;46.40;;;;;;6169109;28;20057;-65
2022/02/20 07:58:53;;;;;;;0.40;0.20;;;18.70;46.50;;;;;;6169111;28;20039;-65
2022/02/20 08:01:54;;;;;;;0.80;0.20;;;18.70;46.60;;;;;;6169664;28;20023;-66
2022/02/20 08:04:54;;;;;;;0.45;0.20;;;18.70;46.60;;;;;;6166892;28;20133;-65
2022/02/20 08:07:55;;;;;;;0.30;0.30;;;18.70;46.70;;;;;;6184014;28;20034;-66
2022/02/20 08:10:56;;;;;;;1.23;0.30;;;18.70;46.60;;;;;;6159230;28;20026;-66
2022/02/20 08:13:57;;;;;;;0.10;0.10;;;18.70;46.70;;;;;;6168213;28;20081;-68
2022/02/20 08:16:58;;;;;;;0.32;0.30;;;18.70;46.70;;;;;;6168958;28;20031;-68
2022/02/20 08:19:58;;;;;;;0.20;0.20;;;18.70;46.70;;;;;;6169070;28;20162;-67
2022/02/20 08:22:59;;;;;;;0.30;0.20;;;18.70;46.70;;;;;;6150960;28;20097;-67
2022/02/20 08:25:59;;;;;;;0.88;0.30;;;18.70;46.80;;;;;;6168117;28;20038;-65
2022/02/20 08:29:00;;;;;;;0.40;0.30;;;18.70;46.80;;;;;;6169275;28;20308;-65
2022/02/20 08:32:02;;;;;;;0.35;0.22;;;18.70;46.80;;;;;;6167427;28;20112;-66
2022/02/20 08:35:08;;;;;;;0.35;0.10;;;18.70;46.80;;;;;;6186344;28;20057;-66
2022/02/20 08:38:08;;;;;;;0.43;0.20;;;18.70;46.80;;;;;;6186736;28;20117;-65
2022/02/20 08:41:09;;;;;;;0.30;0.30;;;18.70;46.80;;;;;;6167167;28;20139;-65
2022/02/20 08:44:09;;;;;;;0.43;0.30;;;18.70;46.80;;;;;;6169949;28;20026;-65
2022/02/20 08:47:11;;;;;;;0.10;0.10;;;18.70;46.80;;;;;;6169343;28;20052;-65
2022/02/20 08:50:14;;;;;;;0.98;0.30;;;18.70;46.80;;;;;;6169854;28;20038;-65
2022/02/20 08:53:14;;;;;;;4.95;0.30;;;18.70;46.70;;;;;;6169888;28;20061;-66
2022/02/20 08:56:15;;;;;;;0.30;0.30;;;18.70;46.80;;;;;;6169246;28;20417;-66
2022/02/20 08:59:15;;;;;;;0.60;0.25;;;18.70;46.80;;;;;;6168450;28;20034;-65
2022/02/20 09:02:16;;;;;;;0.50;0.15;;;18.70;46.80;;;;;;6169096;28;20023;-66
2022/02/20 09:05:17;;;;;;;1.30;0.30;;;18.70;46.80;;;;;;6169166;28;20382;-64
2022/02/20 09:08:17;;;;;;;0.35;0.22;;;18.70;46.80;;;;;;6169211;28;20023;-65
2022/02/20 09:11:19;;;;;;;0.73;0.30;;;18.70;46.80;;;;;;6169125;28;20110;-65
2022/02/20 09:14:19;;;;;;;0.82;0.30;;;18.70;46.80;;;;;;6169160;28;20050;-65
2022/02/20 09:17:20;;;;;;;0.28;0.17;;;18.70;46.80;;;;;;6168661;28;20037;-65
2022/02/20 09:20:21;;;;;;;0.57;0.22;;;18.70;46.80;;;;;;6169278;28;20059;-65
2022/02/20 09:23:21;;;;;;;0.52;0.10;;;18.70;46.70;;;;;;6169086;28;20027;-65
2022/02/20 09:26:22;;;;;;;0.13;0.13;;;18.70;46.70;;;;;;6169219;28;20429;-65
2022/02/20 09:29:23;;;;;;;0.30;0.20;;;18.70;46.70;;;;;;6169512;28;20475;-64
2022/02/20 09:32:26;;;;;;;0.30;0.20;;;18.70;46.70;;;;;;6169002;28;20201;-66
2022/02/20 09:35:26;;;;;;;0.13;0.13;;;18.70;46.70;;;;;;6168411;28;20027;-65
2022/02/20 09:38:27;;;;;;;0.17;0.17;;;18.70;46.70;;;;;;6168847;28;20086;-66
2022/02/20 09:41:31;;;;;;;0.20;0.20;;;18.70;46.70;;;;;;6165809;28;20316;-65
2022/02/20 09:44:31;;;;;;;0.25;0.20;;;18.70;46.70;;;;;;6144623;29;20098;-66
2022/02/20 09:47:32;;;;;;;0.60;0.20;;;18.70;46.70;;;;;;6144515;29;20455;-66
2022/02/20 09:50:32;;;;;;;0.82;0.20;;;18.70;46.70;;;;;;6154895;28;20027;-66
2022/02/20 09:53:34;;;;;;;0.15;0.15;;;18.70;46.60;;;;;;6169006;28;20026;-65
2022/02/20 09:56:38;;;;;;;0.73;0.25;;;18.70;46.70;;;;;;6168205;28;20461;-66
2022/02/20 09:59:39;;;;;;;0.70;0.35;;;18.70;47.40;;;;;;6168771;28;20110;-66
2022/02/20 10:02:44;;;;;;;0.70;0.28;;;18.70;46.70;;;;;;6169307;28;20647;-66
2022/02/20 10:05:54;;;;;;;0.10;0.10;;;18.70;46.60;;;;;;6168788;28;20391;-66
2022/02/20 10:08:58;;;;;;;0.30;0.20;;;18.70;46.60;;;;;;6144994;28;20045;-65
2022/02/20 10:11:59;;;;;;;0.20;0.20;;;18.70;46.60;;;;;;6147748;28;20035;-65
2022/02/20 10:15:00;;;;;;;0.20;0.20;;;18.70;46.60;;;;;;6148985;28;20058;-66
2022/02/20 10:18:10;;;;;;;0.13;0.13;;;18.70;46.60;;;;;;6149300;28;20095;-66
2022/02/20 10:21:10;;;;;;;0.45;0.28;;;18.70;46.60;;;;;;6148977;28;20030;-65
2022/02/20 10:24:14;;;;;;;0.43;0.20;;;18.70;46.50;;;;;;6150732;28;20519;-66
2022/02/20 10:27:14;;;;;;;0.40;0.20;;;18.70;46.60;;;;;;6159333;28;20471;-66
2022/02/20 10:30:26;;;;;;;0.28;0.25;;;18.70;46.60;;;;;;6172961;28;20042;-65
2022/02/20 10:33:27;;;;;;;0.20;0.10;;;18.70;46.60;;;;;;6172371;28;20058;-67
2022/02/20 10:36:52;;;;;;;0.30;0.20;;;18.70;46.60;;;;;;6172306;28;20086;-65
2022/02/20 10:39:53;;;;;;;0.10;0.10;;;18.70;46.50;;;;;;6172788;28;20187;-67
2022/02/20 10:42:55;;;;;;;0.15;0.15;;;18.70;46.60;;;;;;6157370;28;20034;-65
2022/02/20 10:46:10;;;;;;;0.20;0.20;;;18.70;46.50;;;;;;6148058;29;20094;-65
2022/02/20 10:49:25;;;;;;;0.13;0.13;;;18.70;46.60;;;;;;6148426;29;20099;-67
2022/02/20 10:52:28;;;;;;;0.10;0.10;;;18.70;46.60;;;;;;6148361;28;20027;-67
2022/02/20 10:55:35;;;;;;;0.57;0.20;;;18.70;46.40;;;;;;6147181;29;20043;-67
2022/02/20 10:58:41;;;;;;;0.20;0.20;;;18.70;46.50;;;;;;6148246;29;20046;-67
2022/02/20 11:01:42;;;;;;;0.40;0.20;;;18.70;46.50;;;;;;6147857;29;20019;-67
2022/02/20 11:04:44;;;;;;;0.30;0.20;;;18.70;46.60;;;;;;6147821;29;20058;-68
2022/02/20 11:07:45;;;;;;;0.32;0.20;;;18.70;46.50;;;;;;6163253;28;20027;-65
2022/02/20 11:10:47;;;;;;;0.20;0.20;;;18.70;46.60;;;;;;6171845;28;20169;-65
2022/02/20 11:13:47;;;;;;;0.60;0.30;;;18.70;46.50;;;;;;6172260;28;20066;-65
2022/02/20 11:16:54;;;;;;;0.40;0.30;;;18.70;46.60;;;;;;6171173;28;20031;-66
2022/02/20 11:19:58;;;;;;;0.10;0.10;;;18.70;46.50;;;;;;6171935;28;20023;-65
2022/02/20 11:23:02;;;;;;;0.30;0.20;;;18.70;46.50;;;;;;6170140;28;20429;-66
2022/02/20 11:26:05;;;;;;;0.25;0.13;;;18.70;46.50;;;;;;6171577;28;20516;-65
2022/02/20 11:29:05;;;;;;;0.20;0.20;;;18.70;46.60;;;;;;6171723;28;20038;-65
2022/02/20 11:32:07;;;;;;;0.13;0.10;;;18.70;46.60;;;;;;6171279;28;20347;-65
2022/02/20 11:35:09;;;;;;;0.50;0.15;;;18.70;46.50;;;;;;6170648;28;20066;-66
2022/02/20 11:38:13;;;;;;;0.10;0.10;;;18.70;46.50;;;;;;6170775;28;20031;-66
2022/02/20 11:41:13;;;;;;;0.20;0.20;;;18.70;46.60;;;;;;6171454;28;20023;-66
2022/02/20 11:44:17;;;;;;;0.20;0.20;;;18.70;46.60;;;;;;6170807;28;20144;-65
2022/02/20 11:47:40;;;;;;;0.28;0.20;;;18.70;46.60;;;;;;6170694;28;20081;-66
2022/02/20 11:50:44;;;;;;;0.80;0.22;;;18.70;46.60;;;;;;6170621;28;20046;-65
2022/02/20 11:53:45;;;;;;;0.22;0.20;;;18.70;46.70;;;;;;6171717;28;20035;-66
2022/02/20 11:57:11;;;;;;;0.13;0.13;;;18.70;46.60;;;;;;6169820;28;20054;-66
2022/02/20 12:00:18;;;;;;;1.98;0.30;;;18.70;46.50;;;;;;6170822;28;20031;-66
2022/02/20 12:03:19;;;;;;;0.13;0.10;;;18.70;46.60;;;;;;6170692;28;20108;-64
2022/02/20 12:06:26;;;;;;;0.70;0.28;;;18.70;46.60;;;;;;6169965;28;20414;-64
2022/02/20 12:09:27;;;;;;;0.10;0.10;;;18.70;46.60;;;;;;6173198;28;20027;-65
2022/02/20 12:12:33;;;;;;;0.10;0.10;;;18.70;46.50;;;;;;6170464;28;20382;-65
2022/02/20 12:15:37;;;;;;;0.68;0.15;;;18.70;46.60;;;;;;6170136;28;20027;-67
2022/02/20 12:18:38;;;;;;;0.65;0.30;;;18.70;46.60;;;;;;6170142;28;20033;-67
2022/02/20 12:21:55;;;;;;;0.60;0.20;;;18.70;46.60;;;;;;6170414;28;20031;-66
2022/02/20 12:24:58;;;;;;;0.20;0.20;;;18.70;46.60;;;;;;6169574;28;20437;-65
2022/02/20 12:28:08;;;;;;;0.32;0.20;;;18.70;46.60;;;;;;6169636;28;20399;-66
2022/02/20 12:31:14;;;;;;;0.20;0.20;;;18.70;46.50;;;;;;6170601;28;20028;-65
2022/02/20 12:34:47;;;;;;;0.30;0.20;;;18.70;46.60;;;;;;6169211;28;20023;-66
2022/02/20 12:37:50;;;;;;;0.20;0.13;;;18.70;46.60;;;;;;6169167;28;20085;-65
2022/02/20 12:40:52;;;;;;;0.30;0.20;;;18.70;46.50;;;;;;6169555;28;20509;-65
2022/02/20 12:43:55;;;;;;;0.45;0.30;;;18.70;46.60;;;;;;6169395;28;20621;-66
2022/02/20 12:46:57;;;;;;;0.82;0.20;;;18.70;46.60;;;;;;6168893;28;20089;-65
2022/02/20 12:49:57;;;;;;;0.75;0.20;;;18.70;46.60;;;;;;6169917;28;20457;-65
2022/02/20 12:52:58;;;;;;;1.90;0.22;;;18.70;46.60;;;;;;6169928;28;20038;-66
2022/02/20 12:56:02;;;;;;;0.22;0.20;;;18.70;46.60;;;;;;6167930;28;20074;-63
2022/02/20 12:59:03;;;;;;;0.30;0.17;;;18.70;46.60;;;;;;6168953;28;20031;-65
2022/02/20 13:02:05;;;;;;;0.30;0.17;;;18.70;46.50;;;;;;6169601;28;20031;-66
2022/02/20 13:05:09;;;;;;;0.40;0.25;;;18.70;46.60;;;;;;6169296;28;20027;-66
2022/02/20 13:08:21;;;;;;;0.47;0.20;;;18.70;46.60;;;;;;6169822;28;20058;-65
2022/02/20 13:11:25;;;;;;;0.60;0.20;;;18.70;46.70;;;;;;6169153;28;20030;-65
2022/02/20 13:14:26;;;;;;;0.20;0.17;;;18.70;46.50;;;;;;6168936;28;20129;-66
2022/02/20 13:17:47;;;;;;;0.35;0.22;;;18.70;46.70;;;;;;6168779;28;20043;-65
2022/02/20 13:20:51;;;;;;;0.20;0.20;;;18.70;46.60;;;;;;6169358;28;20482;-67
2022/02/20 13:23:52;;;;;;;0.10;0.10;;;18.70;46.60;;;;;;6167945;28;20035;-66
2022/02/20 13:26:59;;;;;;;0.30;0.20;;;18.70;46.70;;;;;;6177111;28;20019;-65
2022/02/20 13:29:59;;;;;;;0.47;0.17;;;18.70;46.60;;;;;;6193125;28;20035;-65
2022/02/20 13:33:10;;;;;;;0.50;0.20;;;18.70;46.70;;;;;;6175145;28;20521;-66
2022/02/20 13:36:12;;;;;;;0.40;0.28;;;18.70;46.70;;;;;;6143924;28;20027;-66
2022/02/20 13:39:16;;;;;;;0.63;0.30;;;18.70;46.60;;;;;;6145395;28;20085;-66
2022/02/20 13:42:17;;;;;;;0.40;0.22;;;18.70;46.60;;;;;;6144907;28;20376;-66
2022/02/20 13:45:17;;;;;;;1.65;0.30;;;18.70;46.60;;;;;;6145275;28;20035;-66
2022/02/20 13:48:39;;;;;;;0.75;0.40;;;18.70;46.60;;;;;;6149979;29;20035;-65
2022/02/20 13:51:44;;;;;;;0.30;0.20;;;18.70;46.60;;;;;;6150108;29;20028;-66
2022/02/20 13:54:45;;;;;;;0.43;0.25;;;18.70;46.70;;;;;;6149474;29;20051;-66
2022/02/20 13:57:46;;;;;;;0.40;0.40;;;18.70;46.60;;;;;;6148854;29;20405;-66
2022/02/20 14:00:56;;;;;;;0.38;0.20;;;18.70;46.60;;;;;;6149511;29;20034;-66
2022/02/20 14:03:56;;;;;;;0.65;0.20;;;18.70;46.70;;;;;;6148750;29;20031;-65
2022/02/20 14:07:08;;;;;;;0.30;0.28;;;18.70;46.70;;;;;;6145349;28;20093;-66
2022/02/20 14:10:13;;;;;;;0.95;0.30;;;18.70;46.70;;;;;;6169420;28;20045;-66
2022/02/20 14:13:17;;;;;;;0.93;0.40;;;18.70;46.70;;;;;;6171336;28;20073;-66
2022/02/20 14:16:23;;;;;;;2.65;0.47;;;18.70;46.30;;;;;;6171208;28;20121;-66
2022/02/20 14:19:25;;;;;;;3.80;0.63;;;18.70;46.30;;;;;;6171495;28;20035;-66
2022/02/20 14:22:25;;;;;;;0.90;0.30;;;18.70;46.40;;;;;;6169184;28;20035;-66
2022/02/20 14:25:30;;;;;;;0.95;0.40;;;18.70;46.40;;;;;;6170417;28;20070;-66
2022/02/20 14:28:31;;;;;;;0.88;0.38;;;18.70;46.60;;;;;;6171308;28;20047;-66
2022/02/20 14:31:35;;;;;;;0.77;0.43;;;18.70;46.60;;;;;;6171007;28;20034;-66
2022/02/20 14:34:43;;;;;;;1.30;0.40;;;18.70;46.60;;;;;;6171158;28;20031;-66
2022/02/20 14:37:44;;;;;;;1.27;0.55;;;18.70;46.70;;;;;;6170673;28;20390;-66
2022/02/20 14:40:46;;;;;;;6.63;0.35;;;18.70;46.80;;;;;;6171137;28;20057;-66
2022/02/20 14:43:51;;;;;;;0.50;0.38;;;18.70;46.80;;;;;;6148796;28;20034;-67
2022/02/20 14:46:51;;;;;;;1.05;0.40;;;18.70;46.80;;;;;;6146954;29;20106;-66
2022/02/20 14:49:53;;;;;;;0.95;0.30;;;18.70;46.80;;;;;;6146798;29;20102;-66
2022/02/20 14:52:54;;;;;;;1.48;0.40;;;18.70;46.80;;;;;;6146840;29;20443;-66
2022/02/20 14:55:54;;;;;;;1.83;0.40;;;18.70;46.90;;;;;;6146543;29;20094;-66
2022/02/20 14:58:58;;;;;;;3.38;0.52;;;18.70;46.80;;;;;;6145246;28;20494;-66
2022/02/20 15:01:59;;;;;;;3.67;0.55;;;18.70;46.80;;;;;;6169110;28;20090;-66
2022/02/20 15:04:59;;;;;;;5.07;0.43;;;18.70;46.90;;;;;;6170965;28;20080;-66
2022/02/20 15:08:00;;;;;;;3.22;0.45;;;18.70;46.90;;;;;;6170350;28;20023;-65
2022/02/20 15:11:00;;;;;;;4.28;0.55;;;18.70;46.80;;;;;;6170451;28;20458;-66
2022/02/20 15:14:01;;;;;;;2.45;0.50;;;18.70;46.90;;;;;;6170580;28;20027;-66
2022/02/20 15:17:03;;;;;;;3.17;0.40;;;18.70;47.00;;;;;;6169610;28;20227;-66
2022/02/20 15:20:04;;;;;;;2.08;0.75;;;18.70;46.90;;;;;;6170025;28;20222;-66
2022/02/20 15:23:05;;;;;;;2.72;0.60;;;18.70;47.00;;;;;;6170214;28;20058;-66
2022/02/20 15:26:07;;;;;;;3.28;0.55;;;18.70;47.00;;;;;;6169874;28;20030;-66
2022/02/20 15:29:09;;;;;;;2.78;0.60;;;18.70;46.90;;;;;;6169590;28;20103;-65
2022/02/20 15:32:10;;;;;;;13.45;0.57;;;18.70;47.00;;;;;;6169864;28;20393;-66
2022/02/20 15:35:10;;;;;;;1.85;0.55;;;18.70;47.00;;;;;;6169514;28;20037;-66
2022/02/20 15:38:11;;;;;;;4.78;0.60;;;18.70;47.70;;;;;;6170124;28;20047;-66
2022/02/20 15:41:12;;;;;;;5.75;0.63;;;18.70;47.00;;;;;;6146069;28;20042;-66
2022/02/20 15:44:12;;;;;;;2.40;0.30;;;18.70;47.00;;;;;;6151843;28;20481;-66
2022/02/20 15:47:13;;;;;;;1.77;0.52;;;18.70;47.10;;;;;;6159772;28;20034;-65
2022/02/20 15:50:13;;;;;;;1.15;0.40;;;18.70;47.00;;;;;;6168959;28;20030;-60